sensor_id;sensor_type;location;lat;lon;timestamp;P1;durP1;ratioP1;P2;durP2;ratioP2
70967;SDS011;58629;48.808;8.820;2023-07-31T00:00:04;1.97;;;1.23;;
70967;SDS011;58629;48.808;8.820;2023-07-31T00:02:39;1.85;;;1.30;;
70967;SDS011;58629;48.808;8.820;2023-07-31T00:05:04;1.20;;;1.00;;
70967;SDS011;58629;48.808;8.820;2023-07-31T00:07:31;1.38;;;1.00;;
70967;SDS011;58629;48.808;8.820;2023-07-31T00:09:57;1.10;;;1.00;;
70967;SDS011;58629;48.808;8.820;2023-07-31T00:12:23;1.50;;;1.00;;
70967;SDS011;58629;48.808;8.820;2023-07-31T00:14:48;1.83;;;1.20;;
70967;SDS011;58629;48.808;8.820;2023-07-31T00:17:13;1.23;;;0.90;;
70967;SDS011;58629;48.808;8.820;2023-07-31T00:19:39;1.48;;;1.00;;
70967;SDS011;58629;48.808;8.820;2023-07-31T00:22:05;1.43;;;1.10;;
70967;SDS011;58629;48.808;8.820;2023-07-31T00:24:30;0.90;;;0.80;;
70967;SDS011;58629;48.808;8.820;2023-07-31T00:26:55;1.42;;;0.95;;
70967;SDS011;58629;48.808;8.820;2023-07-31T00:29:21;1.83;;;1.20;;
70967;SDS011;58629;48.808;8.820;2023-07-31T00:31:46;1.83;;;1.07;;
70967;SDS011;58629;48.808;8.820;2023-07-31T00:34:11;1.57;;;1.17;;
70967;SDS011;58629;48.808;8.820;2023-07-31T00:36:37;2.33;;;1.27;;
70967;SDS011;58629;48.808;8.820;2023-07-31T00:39:02;2.07;;;1.40;;
70967;SDS011;58629;48.808;8.820;2023-07-31T00:41:27;2.30;;;1.30;;
70967;SDS011;58629;48.808;8.820;2023-07-31T00:43:53;2.60;;;1.30;;
70967;SDS011;58629;48.808;8.820;2023-07-31T00:46:18;1.42;;;1.17;;
70967;SDS011;58629;48.808;8.820;2023-07-31T00:48:44;1.97;;;1.10;;
70967;SDS011;58629;48.808;8.820;2023-07-31T00:51:10;1.10;;;0.90;;
70967;SDS011;58629;48.808;8.820;2023-07-31T00:53:35;2.30;;;1.40;;
70967;SDS011;58629;48.808;8.820;2023-07-31T00:56:01;6.07;;;1.60;;
70967;SDS011;58629;48.808;8.820;2023-07-31T00:58:27;2.50;;;1.58;;
70967;SDS011;58629;48.808;8.820;2023-07-31T01:00:52;2.43;;;1.37;;
70967;SDS011;58629;48.808;8.820;2023-07-31T01:03:17;1.97;;;1.50;;
70967;SDS011;58629;48.808;8.820;2023-07-31T01:05:54;2.17;;;1.20;;
70967;SDS011;58629;48.808;8.820;2023-07-31T01:08:33;1.77;;;1.33;;
70967;SDS011;58629;48.808;8.820;2023-07-31T01:11:27;2.17;;;1.63;;
70967;SDS011;58629;48.808;8.820;2023-07-31T01:13:55;1.50;;;1.00;;
70967;SDS011;58629;48.808;8.820;2023-07-31T01:16:21;1.80;;;1.10;;
70967;SDS011;58629;48.808;8.820;2023-07-31T01:18:46;1.93;;;1.17;;
70967;SDS011;58629;48.808;8.820;2023-07-31T01:21:19;1.30;;;1.10;;
70967;SDS011;58629;48.808;8.820;2023-07-31T01:26:57;1.83;;;1.35;;
70967;SDS011;58629;48.808;8.820;2023-07-31T01:29:38;2.35;;;1.50;;
70967;SDS011;58629;48.808;8.820;2023-07-31T01:32:08;2.17;;;1.40;;
70967;SDS011;58629;48.808;8.820;2023-07-31T01:34:34;2.28;;;1.50;;
70967;SDS011;58629;48.808;8.820;2023-07-31T01:37:00;2.65;;;1.50;;
70967;SDS011;58629;48.808;8.820;2023-07-31T01:39:25;2.10;;;1.60;;
70967;SDS011;58629;48.808;8.820;2023-07-31T01:41:51;2.43;;;1.47;;
70967;SDS011;58629;48.808;8.820;2023-07-31T01:44:16;1.73;;;1.23;;
70967;SDS011;58629;48.808;8.820;2023-07-31T01:46:41;1.80;;;1.33;;
70967;SDS011;58629;48.808;8.820;2023-07-31T01:49:07;1.30;;;1.20;;
70967;SDS011;58629;48.808;8.820;2023-07-31T01:51:32;1.53;;;1.00;;
70967;SDS011;58629;48.808;8.820;2023-07-31T01:53:59;1.40;;;1.10;;
70967;SDS011;58629;48.808;8.820;2023-07-31T01:56:25;1.23;;;1.00;;
70967;SDS011;58629;48.808;8.820;2023-07-31T01:58:50;1.30;;;1.20;;
70967;SDS011;58629;48.808;8.820;2023-07-31T02:01:15;1.70;;;1.13;;
70967;SDS011;58629;48.808;8.820;2023-07-31T02:03:41;1.93;;;1.17;;
70967;SDS011;58629;48.808;8.820;2023-07-31T02:06:07;2.13;;;1.33;;
70967;SDS011;58629;48.808;8.820;2023-07-31T02:08:32;1.70;;;1.33;;
70967;SDS011;58629;48.808;8.820;2023-07-31T02:10:57;1.50;;;1.27;;
70967;SDS011;58629;48.808;8.820;2023-07-31T02:13:23;1.10;;;0.93;;
70967;SDS011;58629;48.808;8.820;2023-07-31T02:15:48;1.73;;;1.20;;
70967;SDS011;58629;48.808;8.820;2023-07-31T02:18:14;2.63;;;1.50;;
70967;SDS011;58629;48.808;8.820;2023-07-31T02:20:39;2.07;;;1.30;;
70967;SDS011;58629;48.808;8.820;2023-07-31T02:23:04;2.23;;;1.30;;
70967;SDS011;58629;48.808;8.820;2023-07-31T02:25:29;2.58;;;1.38;;
70967;SDS011;58629;48.808;8.820;2023-07-31T02:27:55;1.98;;;1.25;;
70967;SDS011;58629;48.808;8.820;2023-07-31T02:30:20;2.23;;;1.40;;
70967;SDS011;58629;48.808;8.820;2023-07-31T02:32:46;1.63;;;1.20;;
70967;SDS011;58629;48.808;8.820;2023-07-31T02:35:11;1.60;;;1.10;;
70967;SDS011;58629;48.808;8.820;2023-07-31T02:37:40;1.35;;;1.02;;
70967;SDS011;58629;48.808;8.820;2023-07-31T02:40:06;1.55;;;0.82;;
70967;SDS011;58629;48.808;8.820;2023-07-31T02:42:31;1.48;;;1.10;;
70967;SDS011;58629;48.808;8.820;2023-07-31T02:44:57;1.30;;;0.90;;
70967;SDS011;58629;48.808;8.820;2023-07-31T02:47:22;1.20;;;1.00;;
70967;SDS011;58629;48.808;8.820;2023-07-31T02:49:47;1.58;;;0.88;;
70967;SDS011;58629;48.808;8.820;2023-07-31T02:52:13;1.10;;;0.97;;
70967;SDS011;58629;48.808;8.820;2023-07-31T02:54:38;1.20;;;1.10;;
70967;SDS011;58629;48.808;8.820;2023-07-31T02:57:03;3.30;;;1.60;;
70967;SDS011;58629;48.808;8.820;2023-07-31T02:59:29;3.65;;;1.50;;
70967;SDS011;58629;48.808;8.820;2023-07-31T03:01:55;2.00;;;1.30;;
70967;SDS011;58629;48.808;8.820;2023-07-31T03:04:20;1.30;;;1.10;;
70967;SDS011;58629;48.808;8.820;2023-07-31T03:06:45;1.17;;;1.07;;
70967;SDS011;58629;48.808;8.820;2023-07-31T03:09:11;2.10;;;1.37;;
70967;SDS011;58629;48.808;8.820;2023-07-31T03:11:36;1.77;;;1.13;;
70967;SDS011;58629;48.808;8.820;2023-07-31T03:14:01;1.35;;;1.20;;
70967;SDS011;58629;48.808;8.820;2023-07-31T03:16:27;1.40;;;1.10;;
70967;SDS011;58629;48.808;8.820;2023-07-31T03:18:52;1.53;;;1.20;;
70967;SDS011;58629;48.808;8.820;2023-07-31T03:21:19;1.25;;;1.00;;
70967;SDS011;58629;48.808;8.820;2023-07-31T03:23:44;1.87;;;1.00;;
70967;SDS011;58629;48.808;8.820;2023-07-31T03:26:09;1.50;;;0.90;;
70967;SDS011;58629;48.808;8.820;2023-07-31T03:28:35;1.92;;;1.30;;
70967;SDS011;58629;48.808;8.820;2023-07-31T03:31:01;1.37;;;1.00;;
70967;SDS011;58629;48.808;8.820;2023-07-31T03:33:26;1.77;;;1.10;;
70967;SDS011;58629;48.808;8.820;2023-07-31T03:35:52;1.50;;;1.13;;
70967;SDS011;58629;48.808;8.820;2023-07-31T03:38:18;1.47;;;1.10;;
70967;SDS011;58629;48.808;8.820;2023-07-31T03:40:43;3.22;;;1.42;;
70967;SDS011;58629;48.808;8.820;2023-07-31T03:43:08;2.63;;;1.23;;
70967;SDS011;58629;48.808;8.820;2023-07-31T03:45:34;1.53;;;1.27;;
70967;SDS011;58629;48.808;8.820;2023-07-31T03:47:59;2.33;;;1.33;;
70967;SDS011;58629;48.808;8.820;2023-07-31T03:50:25;1.37;;;1.10;;
70967;SDS011;58629;48.808;8.820;2023-07-31T03:52:50;2.58;;;1.40;;
70967;SDS011;58629;48.808;8.820;2023-07-31T03:55:16;1.45;;;1.35;;
70967;SDS011;58629;48.808;8.820;2023-07-31T03:57:41;1.77;;;1.20;;
70967;SDS011;58629;48.808;8.820;2023-07-31T04:00:06;2.07;;;1.10;;
70967;SDS011;58629;48.808;8.820;2023-07-31T04:02:32;2.55;;;1.27;;
70967;SDS011;58629;48.808;8.820;2023-07-31T04:04:58;1.60;;;1.10;;
70967;SDS011;58629;48.808;8.820;2023-07-31T04:07:23;2.53;;;1.40;;
70967;SDS011;58629;48.808;8.820;2023-07-31T04:09:48;1.63;;;1.23;;
70967;SDS011;58629;48.808;8.820;2023-07-31T04:12:14;1.52;;;1.20;;
70967;SDS011;58629;48.808;8.820;2023-07-31T04:14:39;1.65;;;1.30;;
70967;SDS011;58629;48.808;8.820;2023-07-31T04:17:04;1.90;;;1.30;;
70967;SDS011;58629;48.808;8.820;2023-07-31T04:19:30;1.87;;;1.23;;
70967;SDS011;58629;48.808;8.820;2023-07-31T04:21:55;3.43;;;1.40;;
70967;SDS011;58629;48.808;8.820;2023-07-31T04:24:20;1.97;;;1.30;;
70967;SDS011;58629;48.808;8.820;2023-07-31T04:26:52;2.05;;;1.20;;
70967;SDS011;58629;48.808;8.820;2023-07-31T04:29:18;2.25;;;1.20;;
70967;SDS011;58629;48.808;8.820;2023-07-31T04:31:43;2.33;;;1.20;;
70967;SDS011;58629;48.808;8.820;2023-07-31T04:34:08;1.87;;;1.30;;
70967;SDS011;58629;48.808;8.820;2023-07-31T04:36:34;1.40;;;1.20;;
70967;SDS011;58629;48.808;8.820;2023-07-31T04:39:00;1.23;;;1.00;;
70967;SDS011;58629;48.808;8.820;2023-07-31T04:41:25;1.27;;;1.00;;
70967;SDS011;58629;48.808;8.820;2023-07-31T04:43:51;1.60;;;1.20;;
70967;SDS011;58629;48.808;8.820;2023-07-31T04:46:16;1.20;;;1.10;;
70967;SDS011;58629;48.808;8.820;2023-07-31T04:48:42;1.20;;;1.00;;
70967;SDS011;58629;48.808;8.820;2023-07-31T04:51:07;1.50;;;1.00;;
70967;SDS011;58629;48.808;8.820;2023-07-31T04:53:32;1.43;;;1.00;;
70967;SDS011;58629;48.808;8.820;2023-07-31T04:55:58;1.33;;;0.93;;
70967;SDS011;58629;48.808;8.820;2023-07-31T04:58:23;1.17;;;1.00;;
70967;SDS011;58629;48.808;8.820;2023-07-31T05:00:48;1.95;;;1.40;;
70967;SDS011;58629;48.808;8.820;2023-07-31T05:03:14;1.30;;;1.00;;
70967;SDS011;58629;48.808;8.820;2023-07-31T05:05:39;1.20;;;1.03;;
70967;SDS011;58629;48.808;8.820;2023-07-31T05:08:04;2.30;;;1.30;;
70967;SDS011;58629;48.808;8.820;2023-07-31T05:10:30;1.87;;;1.20;;
70967;SDS011;58629;48.808;8.820;2023-07-31T05:12:55;2.10;;;1.10;;
70967;SDS011;58629;48.808;8.820;2023-07-31T05:15:20;1.43;;;1.20;;
70967;SDS011;58629;48.808;8.820;2023-07-31T05:17:45;1.30;;;1.20;;
70967;SDS011;58629;48.808;8.820;2023-07-31T05:20:11;1.90;;;1.37;;
70967;SDS011;58629;48.808;8.820;2023-07-31T05:22:36;2.00;;;1.20;;
70967;SDS011;58629;48.808;8.820;2023-07-31T05:25:02;1.63;;;1.20;;
70967;SDS011;58629;48.808;8.820;2023-07-31T05:27:27;1.20;;;1.10;;
70967;SDS011;58629;48.808;8.820;2023-07-31T05:29:52;1.90;;;1.27;;
70967;SDS011;58629;48.808;8.820;2023-07-31T05:32:18;1.30;;;1.03;;
70967;SDS011;58629;48.808;8.820;2023-07-31T05:34:43;1.42;;;1.00;;
70967;SDS011;58629;48.808;8.820;2023-07-31T05:37:09;2.27;;;1.20;;
70967;SDS011;58629;48.808;8.820;2023-07-31T05:39:36;1.98;;;1.27;;
70967;SDS011;58629;48.808;8.820;2023-07-31T05:42:01;1.67;;;1.27;;
70967;SDS011;58629;48.808;8.820;2023-07-31T05:44:26;1.60;;;1.03;;
70967;SDS011;58629;48.808;8.820;2023-07-31T05:46:52;1.13;;;1.00;;
70967;SDS011;58629;48.808;8.820;2023-07-31T05:49:17;2.40;;;1.50;;
70967;SDS011;58629;48.808;8.820;2023-07-31T05:51:42;3.47;;;1.60;;
70967;SDS011;58629;48.808;8.820;2023-07-31T05:54:08;1.50;;;1.27;;
70967;SDS011;58629;48.808;8.820;2023-07-31T05:56:33;3.37;;;1.40;;
70967;SDS011;58629;48.808;8.820;2023-07-31T05:58:59;2.72;;;1.50;;
70967;SDS011;58629;48.808;8.820;2023-07-31T06:01:24;1.40;;;1.20;;
70967;SDS011;58629;48.808;8.820;2023-07-31T06:03:49;2.47;;;1.30;;
70967;SDS011;58629;48.808;8.820;2023-07-31T06:06:15;2.87;;;1.37;;
70967;SDS011;58629;48.808;8.820;2023-07-31T06:08:40;3.47;;;1.87;;
70967;SDS011;58629;48.808;8.820;2023-07-31T06:11:06;2.27;;;1.60;;
70967;SDS011;58629;48.808;8.820;2023-07-31T06:13:34;2.08;;;1.48;;
70967;SDS011;58629;48.808;8.820;2023-07-31T06:15:59;2.73;;;1.40;;
70967;SDS011;58629;48.808;8.820;2023-07-31T06:18:24;1.77;;;1.30;;
70967;SDS011;58629;48.808;8.820;2023-07-31T06:20:50;3.33;;;1.60;;
70967;SDS011;58629;48.808;8.820;2023-07-31T06:23:18;2.58;;;1.40;;
70967;SDS011;58629;48.808;8.820;2023-07-31T06:25:44;1.73;;;1.30;;
70967;SDS011;58629;48.808;8.820;2023-07-31T06:28:09;3.23;;;1.50;;
70967;SDS011;58629;48.808;8.820;2023-07-31T06:30:35;3.73;;;1.50;;
70967;SDS011;58629;48.808;8.820;2023-07-31T06:33:00;2.13;;;1.40;;
70967;SDS011;58629;48.808;8.820;2023-07-31T06:35:25;2.30;;;1.40;;
70967;SDS011;58629;48.808;8.820;2023-07-31T06:37:51;2.72;;;1.40;;
70967;SDS011;58629;48.808;8.820;2023-07-31T06:40:16;4.33;;;1.50;;
70967;SDS011;58629;48.808;8.820;2023-07-31T06:42:41;2.60;;;1.30;;
70967;SDS011;58629;48.808;8.820;2023-07-31T06:45:07;2.70;;;1.30;;
70967;SDS011;58629;48.808;8.820;2023-07-31T06:47:33;2.72;;;1.67;;
70967;SDS011;58629;48.808;8.820;2023-07-31T06:49:58;2.73;;;1.47;;
70967;SDS011;58629;48.808;8.820;2023-07-31T06:52:23;2.60;;;1.40;;
70967;SDS011;58629;48.808;8.820;2023-07-31T06:55:15;3.10;;;1.50;;
70967;SDS011;58629;48.808;8.820;2023-07-31T06:57:48;2.10;;;1.30;;
70967;SDS011;58629;48.808;8.820;2023-07-31T07:00:15;1.30;;;1.00;;
70967;SDS011;58629;48.808;8.820;2023-07-31T07:02:41;1.92;;;1.38;;
70967;SDS011;58629;48.808;8.820;2023-07-31T07:05:07;2.83;;;1.40;;
70967;SDS011;58629;48.808;8.820;2023-07-31T07:07:33;3.28;;;1.52;;
70967;SDS011;58629;48.808;8.820;2023-07-31T07:09:58;2.63;;;1.50;;
70967;SDS011;58629;48.808;8.820;2023-07-31T07:12:29;2.10;;;1.37;;
70967;SDS011;58629;48.808;8.820;2023-07-31T07:14:55;3.33;;;1.45;;
70967;SDS011;58629;48.808;8.820;2023-07-31T07:17:20;2.22;;;1.50;;
70967;SDS011;58629;48.808;8.820;2023-07-31T07:19:47;3.42;;;1.70;;
70967;SDS011;58629;48.808;8.820;2023-07-31T07:22:13;3.55;;;1.50;;
70967;SDS011;58629;48.808;8.820;2023-07-31T07:24:38;3.10;;;1.63;;
70967;SDS011;58629;48.808;8.820;2023-07-31T07:27:04;2.57;;;1.40;;
70967;SDS011;58629;48.808;8.820;2023-07-31T07:29:29;2.45;;;1.40;;
70967;SDS011;58629;48.808;8.820;2023-07-31T07:31:55;4.17;;;1.40;;
70967;SDS011;58629;48.808;8.820;2023-07-31T07:34:22;5.33;;;1.50;;
70967;SDS011;58629;48.808;8.820;2023-07-31T07:36:49;2.17;;;1.40;;
70967;SDS011;58629;48.808;8.820;2023-07-31T07:39:14;3.00;;;1.40;;
70967;SDS011;58629;48.808;8.820;2023-07-31T07:41:40;2.40;;;1.50;;
70967;SDS011;58629;48.808;8.820;2023-07-31T07:44:05;3.40;;;1.50;;
70967;SDS011;58629;48.808;8.820;2023-07-31T07:46:31;3.93;;;1.53;;
70967;SDS011;58629;48.808;8.820;2023-07-31T07:48:56;2.80;;;1.47;;
70967;SDS011;58629;48.808;8.820;2023-07-31T07:51:21;2.30;;;1.47;;
70967;SDS011;58629;48.808;8.820;2023-07-31T07:53:47;2.23;;;1.30;;
70967;SDS011;58629;48.808;8.820;2023-07-31T07:56:12;2.83;;;1.40;;
70967;SDS011;58629;48.808;8.820;2023-07-31T07:58:37;2.65;;;1.38;;
70967;SDS011;58629;48.808;8.820;2023-07-31T08:01:02;2.42;;;1.30;;
70967;SDS011;58629;48.808;8.820;2023-07-31T08:03:28;3.27;;;1.40;;
70967;SDS011;58629;48.808;8.820;2023-07-31T08:05:57;2.27;;;1.63;;
70967;SDS011;58629;48.808;8.820;2023-07-31T08:08:23;3.28;;;1.60;;
70967;SDS011;58629;48.808;8.820;2023-07-31T08:10:49;2.73;;;1.77;;
70967;SDS011;58629;48.808;8.820;2023-07-31T08:13:14;3.17;;;1.60;;
70967;SDS011;58629;48.808;8.820;2023-07-31T08:15:42;3.53;;;1.50;;
70967;SDS011;58629;48.808;8.820;2023-07-31T08:18:08;4.22;;;1.70;;
70967;SDS011;58629;48.808;8.820;2023-07-31T08:20:34;4.10;;;1.50;;
70967;SDS011;58629;48.808;8.820;2023-07-31T08:22:59;2.50;;;1.42;;
70967;SDS011;58629;48.808;8.820;2023-07-31T08:25:24;4.07;;;1.80;;
70967;SDS011;58629;48.808;8.820;2023-07-31T08:27:50;4.27;;;1.50;;
70967;SDS011;58629;48.808;8.820;2023-07-31T08:30:17;2.95;;;1.55;;
70967;SDS011;58629;48.808;8.820;2023-07-31T08:32:43;5.37;;;1.63;;
70967;SDS011;58629;48.808;8.820;2023-07-31T08:35:08;3.20;;;1.45;;
70967;SDS011;58629;48.808;8.820;2023-07-31T08:37:34;2.50;;;1.40;;
70967;SDS011;58629;48.808;8.820;2023-07-31T08:39:59;4.03;;;1.70;;
70967;SDS011;58629;48.808;8.820;2023-07-31T08:42:25;3.93;;;1.50;;
70967;SDS011;58629;48.808;8.820;2023-07-31T08:44:50;6.73;;;1.80;;
70967;SDS011;58629;48.808;8.820;2023-07-31T08:47:17;3.42;;;1.70;;
70967;SDS011;58629;48.808;8.820;2023-07-31T08:49:43;3.17;;;1.55;;
70967;SDS011;58629;48.808;8.820;2023-07-31T08:52:11;2.90;;;1.55;;
70967;SDS011;58629;48.808;8.820;2023-07-31T08:54:36;3.60;;;1.50;;
70967;SDS011;58629;48.808;8.820;2023-07-31T08:57:01;2.60;;;1.60;;
70967;SDS011;58629;48.808;8.820;2023-07-31T08:59:29;3.72;;;1.70;;
70967;SDS011;58629;48.808;8.820;2023-07-31T09:01:56;3.40;;;1.90;;
70967;SDS011;58629;48.808;8.820;2023-07-31T09:04:28;2.38;;;1.50;;
70967;SDS011;58629;48.808;8.820;2023-07-31T09:06:56;3.17;;;1.65;;
70967;SDS011;58629;48.808;8.820;2023-07-31T09:09:24;2.55;;;1.60;;
70967;SDS011;58629;48.808;8.820;2023-07-31T09:11:50;5.73;;;1.87;;
70967;SDS011;58629;48.808;8.820;2023-07-31T09:14:15;3.13;;;1.67;;
70967;SDS011;58629;48.808;8.820;2023-07-31T09:16:55;3.20;;;1.55;;
70967;SDS011;58629;48.808;8.820;2023-07-31T09:19:24;3.58;;;1.90;;
70967;SDS011;58629;48.808;8.820;2023-07-31T09:21:54;3.40;;;1.58;;
70967;SDS011;58629;48.808;8.820;2023-07-31T09:24:27;3.17;;;1.57;;
70967;SDS011;58629;48.808;8.820;2023-07-31T09:26:57;3.47;;;1.50;;
70967;SDS011;58629;48.808;8.820;2023-07-31T09:29:26;4.97;;;1.50;;
70967;SDS011;58629;48.808;8.820;2023-07-31T09:31:53;3.73;;;1.80;;
70967;SDS011;58629;48.808;8.820;2023-07-31T09:34:19;4.80;;;1.80;;
70967;SDS011;58629;48.808;8.820;2023-07-31T09:36:46;3.08;;;1.52;;
70967;SDS011;58629;48.808;8.820;2023-07-31T09:39:13;3.17;;;1.70;;
70967;SDS011;58629;48.808;8.820;2023-07-31T09:41:44;2.92;;;1.60;;
70967;SDS011;58629;48.808;8.820;2023-07-31T09:44:12;3.70;;;1.50;;
70967;SDS011;58629;48.808;8.820;2023-07-31T09:46:38;2.70;;;1.65;;
70967;SDS011;58629;48.808;8.820;2023-07-31T09:49:07;4.67;;;1.90;;
70967;SDS011;58629;48.808;8.820;2023-07-31T09:51:34;4.35;;;1.70;;
70967;SDS011;58629;48.808;8.820;2023-07-31T09:54:03;4.97;;;1.60;;
70967;SDS011;58629;48.808;8.820;2023-07-31T09:56:33;3.70;;;1.77;;
70967;SDS011;58629;48.808;8.820;2023-07-31T09:58:59;2.83;;;1.40;;
70967;SDS011;58629;48.808;8.820;2023-07-31T10:01:26;4.37;;;1.73;;
70967;SDS011;58629;48.808;8.820;2023-07-31T10:03:52;3.13;;;1.50;;
70967;SDS011;58629;48.808;8.820;2023-07-31T10:06:17;3.40;;;1.70;;
70967;SDS011;58629;48.808;8.820;2023-07-31T10:08:44;4.13;;;1.73;;
70967;SDS011;58629;48.808;8.820;2023-07-31T10:11:12;2.90;;;1.70;;
70967;SDS011;58629;48.808;8.820;2023-07-31T10:13:39;2.08;;;1.60;;
70967;SDS011;58629;48.808;8.820;2023-07-31T10:16:06;2.40;;;1.50;;
70967;SDS011;58629;48.808;8.820;2023-07-31T10:18:32;2.70;;;1.67;;
70967;SDS011;58629;48.808;8.820;2023-07-31T10:20:58;3.63;;;1.80;;
70967;SDS011;58629;48.808;8.820;2023-07-31T10:23:23;5.63;;;2.60;;
70967;SDS011;58629;48.808;8.820;2023-07-31T10:25:50;4.40;;;2.30;;
70967;SDS011;58629;48.808;8.820;2023-07-31T10:28:17;3.85;;;2.00;;
70967;SDS011;58629;48.808;8.820;2023-07-31T10:30:43;4.13;;;1.90;;
70967;SDS011;58629;48.808;8.820;2023-07-31T10:33:09;3.08;;;1.77;;
70967;SDS011;58629;48.808;8.820;2023-07-31T10:35:35;3.00;;;1.80;;
70967;SDS011;58629;48.808;8.820;2023-07-31T10:38:10;3.33;;;1.90;;
70967;SDS011;58629;48.808;8.820;2023-07-31T10:40:39;3.00;;;1.70;;
70967;SDS011;58629;48.808;8.820;2023-07-31T10:43:04;4.00;;;1.73;;
70967;SDS011;58629;48.808;8.820;2023-07-31T10:45:31;5.53;;;2.20;;
70967;SDS011;58629;48.808;8.820;2023-07-31T10:50:54;3.67;;;2.17;;
70967;SDS011;58629;48.808;8.820;2023-07-31T10:53:28;4.63;;;1.90;;
70967;SDS011;58629;48.808;8.820;2023-07-31T10:55:58;5.82;;;2.00;;
70967;SDS011;58629;48.808;8.820;2023-07-31T10:58:33;3.40;;;2.07;;
70967;SDS011;58629;48.808;8.820;2023-07-31T11:01:01;2.88;;;1.75;;
70967;SDS011;58629;48.808;8.820;2023-07-31T11:03:41;3.85;;;2.00;;
70967;SDS011;58629;48.808;8.820;2023-07-31T11:06:08;4.50;;;2.10;;
70967;SDS011;58629;48.808;8.820;2023-07-31T11:08:34;2.97;;;1.90;;
70967;SDS011;58629;48.808;8.820;2023-07-31T11:11:07;3.88;;;2.00;;
70967;SDS011;58629;48.808;8.820;2023-07-31T11:13:44;3.88;;;1.90;;
70967;SDS011;58629;48.808;8.820;2023-07-31T11:16:10;4.37;;;1.90;;
70967;SDS011;58629;48.808;8.820;2023-07-31T11:18:38;4.78;;;2.10;;
70967;SDS011;58629;48.808;8.820;2023-07-31T11:21:05;3.10;;;2.00;;
70967;SDS011;58629;48.808;8.820;2023-07-31T11:23:31;3.50;;;2.00;;
70967;SDS011;58629;48.808;8.820;2023-07-31T11:26:00;4.60;;;2.35;;
70967;SDS011;58629;48.808;8.820;2023-07-31T11:28:26;3.50;;;2.22;;
70967;SDS011;58629;48.808;8.820;2023-07-31T11:30:57;2.83;;;1.73;;
70967;SDS011;58629;48.808;8.820;2023-07-31T11:33:22;3.22;;;1.80;;
70967;SDS011;58629;48.808;8.820;2023-07-31T11:35:48;5.63;;;2.17;;
70967;SDS011;58629;48.808;8.820;2023-07-31T11:38:33;2.93;;;1.90;;
70967;SDS011;58629;48.808;8.820;2023-07-31T11:41:02;4.22;;;2.05;;
70967;SDS011;58629;48.808;8.820;2023-07-31T11:43:29;3.70;;;2.10;;
70967;SDS011;58629;48.808;8.820;2023-07-31T11:45:56;4.32;;;1.85;;
70967;SDS011;58629;48.808;8.820;2023-07-31T11:48:23;3.78;;;1.88;;
70967;SDS011;58629;48.808;8.820;2023-07-31T11:50:52;3.77;;;2.00;;
70967;SDS011;58629;48.808;8.820;2023-07-31T11:53:35;3.08;;;1.85;;
70967;SDS011;58629;48.808;8.820;2023-07-31T11:56:03;4.22;;;2.00;;
70967;SDS011;58629;48.808;8.820;2023-07-31T11:58:30;4.05;;;1.90;;
70967;SDS011;58629;48.808;8.820;2023-07-31T12:00:56;2.85;;;1.80;;
70967;SDS011;58629;48.808;8.820;2023-07-31T12:03:23;3.53;;;1.80;;
70967;SDS011;58629;48.808;8.820;2023-07-31T12:05:48;5.13;;;2.13;;
70967;SDS011;58629;48.808;8.820;2023-07-31T12:08:14;2.93;;;1.80;;
70967;SDS011;58629;48.808;8.820;2023-07-31T12:10:41;3.55;;;1.90;;
70967;SDS011;58629;48.808;8.820;2023-07-31T12:13:08;3.07;;;1.80;;
70967;SDS011;58629;48.808;8.820;2023-07-31T12:15:44;4.07;;;1.80;;
70967;SDS011;58629;48.808;8.820;2023-07-31T12:18:14;2.78;;;1.70;;
70967;SDS011;58629;48.808;8.820;2023-07-31T12:20:47;2.45;;;1.40;;
70967;SDS011;58629;48.808;8.820;2023-07-31T12:23:24;3.33;;;1.67;;
70967;SDS011;58629;48.808;8.820;2023-07-31T12:28:45;3.92;;;1.83;;
70967;SDS011;58629;48.808;8.820;2023-07-31T12:31:15;2.22;;;1.65;;
70967;SDS011;58629;48.808;8.820;2023-07-31T12:33:46;2.60;;;1.77;;
70967;SDS011;58629;48.808;8.820;2023-07-31T12:36:15;2.73;;;1.90;;
70967;SDS011;58629;48.808;8.820;2023-07-31T12:38:42;2.80;;;1.80;;
70967;SDS011;58629;48.808;8.820;2023-07-31T12:41:08;3.35;;;2.00;;
70967;SDS011;58629;48.808;8.820;2023-07-31T12:43:34;2.87;;;1.80;;
70967;SDS011;58629;48.808;8.820;2023-07-31T12:46:00;2.95;;;1.95;;
70967;SDS011;58629;48.808;8.820;2023-07-31T12:48:25;3.07;;;1.90;;
70967;SDS011;58629;48.808;8.820;2023-07-31T12:50:51;2.73;;;1.70;;
70967;SDS011;58629;48.808;8.820;2023-07-31T12:53:16;3.10;;;2.10;;
70967;SDS011;58629;48.808;8.820;2023-07-31T12:55:41;2.23;;;1.67;;
70967;SDS011;58629;48.808;8.820;2023-07-31T12:58:07;2.50;;;1.88;;
70967;SDS011;58629;48.808;8.820;2023-07-31T13:00:32;2.80;;;1.90;;
70967;SDS011;58629;48.808;8.820;2023-07-31T13:02:57;3.60;;;1.77;;
70967;SDS011;58629;48.808;8.820;2023-07-31T13:05:23;2.90;;;1.73;;
70967;SDS011;58629;48.808;8.820;2023-07-31T13:07:49;2.47;;;1.80;;
70967;SDS011;58629;48.808;8.820;2023-07-31T13:10:14;3.67;;;1.83;;
70967;SDS011;58629;48.808;8.820;2023-07-31T13:12:40;2.90;;;1.70;;
70967;SDS011;58629;48.808;8.820;2023-07-31T13:15:05;1.80;;;1.60;;
70967;SDS011;58629;48.808;8.820;2023-07-31T13:17:31;3.00;;;2.30;;
70967;SDS011;58629;48.808;8.820;2023-07-31T13:19:57;4.17;;;1.90;;
70967;SDS011;58629;48.808;8.820;2023-07-31T13:22:23;2.90;;;2.00;;
70967;SDS011;58629;48.808;8.820;2023-07-31T13:24:48;2.70;;;1.77;;
70967;SDS011;58629;48.808;8.820;2023-07-31T13:27:13;2.63;;;2.00;;
70967;SDS011;58629;48.808;8.820;2023-07-31T13:29:43;3.88;;;1.90;;
70967;SDS011;58629;48.808;8.820;2023-07-31T13:32:09;3.22;;;2.00;;
70967;SDS011;58629;48.808;8.820;2023-07-31T13:34:34;3.23;;;2.00;;
70967;SDS011;58629;48.808;8.820;2023-07-31T13:36:59;2.93;;;1.80;;
70967;SDS011;58629;48.808;8.820;2023-07-31T13:39:25;3.43;;;2.00;;
70967;SDS011;58629;48.808;8.820;2023-07-31T13:41:50;3.43;;;1.80;;
70967;SDS011;58629;48.808;8.820;2023-07-31T13:44:15;2.33;;;1.50;;
70967;SDS011;58629;48.808;8.820;2023-07-31T13:46:40;2.20;;;1.60;;
70967;SDS011;58629;48.808;8.820;2023-07-31T13:49:06;2.40;;;1.60;;
70967;SDS011;58629;48.808;8.820;2023-07-31T13:51:31;2.43;;;1.67;;
70967;SDS011;58629;48.808;8.820;2023-07-31T13:53:56;2.88;;;1.52;;
70967;SDS011;58629;48.808;8.820;2023-07-31T13:56:22;2.70;;;1.67;;
70967;SDS011;58629;48.808;8.820;2023-07-31T13:58:47;2.10;;;1.50;;
70967;SDS011;58629;48.808;8.820;2023-07-31T14:01:12;3.47;;;1.80;;
70967;SDS011;58629;48.808;8.820;2023-07-31T14:03:38;2.73;;;1.70;;
70967;SDS011;58629;48.808;8.820;2023-07-31T14:06:03;2.50;;;1.60;;
70967;SDS011;58629;48.808;8.820;2023-07-31T14:08:29;2.60;;;1.92;;
70967;SDS011;58629;48.808;8.820;2023-07-31T14:10:55;3.07;;;1.93;;
70967;SDS011;58629;48.808;8.820;2023-07-31T14:13:20;2.88;;;1.85;;
70967;SDS011;58629;48.808;8.820;2023-07-31T14:15:46;2.80;;;1.83;;
70967;SDS011;58629;48.808;8.820;2023-07-31T14:18:11;4.10;;;2.77;;
70967;SDS011;58629;48.808;8.820;2023-07-31T14:20:36;4.03;;;2.17;;
70967;SDS011;58629;48.808;8.820;2023-07-31T14:23:02;3.37;;;2.10;;
70967;SDS011;58629;48.808;8.820;2023-07-31T14:25:28;2.97;;;1.80;;
70967;SDS011;58629;48.808;8.820;2023-07-31T14:27:53;3.20;;;1.70;;
70967;SDS011;58629;48.808;8.820;2023-07-31T14:30:18;3.33;;;1.90;;
70967;SDS011;58629;48.808;8.820;2023-07-31T14:32:44;3.50;;;2.30;;
70967;SDS011;58629;48.808;8.820;2023-07-31T14:35:09;3.33;;;1.90;;
70967;SDS011;58629;48.808;8.820;2023-07-31T14:37:41;2.83;;;1.70;;
70967;SDS011;58629;48.808;8.820;2023-07-31T14:40:08;3.57;;;2.00;;
70967;SDS011;58629;48.808;8.820;2023-07-31T14:42:35;3.58;;;1.90;;
70967;SDS011;58629;48.808;8.820;2023-07-31T14:45:04;3.20;;;2.00;;
70967;SDS011;58629;48.808;8.820;2023-07-31T14:47:31;5.20;;;2.28;;
70967;SDS011;58629;48.808;8.820;2023-07-31T14:49:57;2.55;;;1.80;;
70967;SDS011;58629;48.808;8.820;2023-07-31T14:52:22;3.37;;;1.77;;